createdAt,value
2023-02-12T00:00:15.613Z,95.00
2023-02-12T00:02:48.395Z,95.20
2023-02-12T00:05:17.041Z,95.50
2023-02-12T00:07:46.252Z,95.90
2023-02-12T00:10:14.203Z,95.20
2023-02-12T00:12:42.069Z,95.20
2023-02-12T00:15:10.356Z,95.20
2023-02-12T00:17:47.105Z,95.40
2023-02-12T00:20:20.155Z,95.00
2023-02-12T00:22:52.376Z,95.50
2023-02-12T00:25:20.258Z,94.40
2023-02-12T00:27:54.262Z,94.50
2023-02-12T00:30:24.949Z,94.80
2023-02-12T00:32:55.607Z,94.60
2023-02-12T00:35:23.484Z,95.00
2023-02-12T00:37:57.715Z,95.00
2023-02-12T00:40:27.790Z,94.90
2023-02-12T00:42:55.662Z,94.90
2023-02-12T00:45:23.593Z,94.90
2023-02-12T00:48:08.547Z,94.70
2023-02-12T00:50:41.677Z,95.50
2023-02-12T00:53:13.813Z,95.30
2023-02-12T00:55:45.042Z,94.90
2023-02-12T00:58:13.134Z,95.10
2023-02-12T01:00:41.070Z,94.90
2023-02-12T01:03:27.142Z,95.40
2023-02-12T01:06:04.477Z,95.40
2023-02-12T01:08:33.708Z,95.20
2023-02-12T01:11:03.098Z,94.50
2023-02-12T01:13:31.726Z,94.70
2023-02-12T01:16:04.490Z,94.90
2023-02-12T01:18:34.563Z,95.40
2023-02-12T01:21:09.678Z,95.00
2023-02-12T01:23:46.893Z,94.80
2023-02-12T01:26:15.708Z,94.20
2023-02-12T01:28:46.352Z,94.40
2023-02-12T01:31:16.371Z,95.00
2023-02-12T01:33:59.814Z,95.20
2023-02-12T01:36:35.456Z,94.80
2023-02-12T01:39:05.343Z,94.60
2023-02-12T01:41:38.197Z,95.10
2023-02-12T01:44:21.046Z,95.20
2023-02-12T01:46:57.694Z,95.20
2023-02-12T01:49:31.361Z,94.70
2023-02-12T01:52:03.821Z,95.00
2023-02-12T01:54:34.604Z,94.70
2023-02-12T01:57:04.050Z,95.10
2023-02-12T01:59:33.146Z,95.50
2023-02-12T02:02:01.197Z,95.50
2023-02-12T02:04:33.932Z,95.00
2023-02-12T02:07:07.310Z,94.90
2023-02-12T02:09:37.971Z,94.10
2023-02-12T02:12:24.661Z,94.30
2023-02-12T02:14:58.316Z,95.10
2023-02-12T02:17:41.695Z,95.20
2023-02-12T02:20:49.733Z,94.30
2023-02-12T02:23:41.191Z,94.10
2023-02-12T02:30:46.553Z,95.60
2023-02-12T02:33:31.510Z,95.50
2023-02-12T02:36:26.171Z,94.60
2023-02-12T02:39:00.563Z,94.60
2023-02-12T02:41:34.429Z,95.50
2023-02-12T02:44:14.129Z,95.70
2023-02-12T02:46:46.071Z,95.00
2023-02-12T02:49:20.621Z,95.40
2023-02-12T02:51:52.462Z,95.70
2023-02-12T02:54:34.241Z,95.80
2023-02-12T02:57:11.326Z,96.40
2023-02-12T02:59:45.450Z,96.40
2023-02-12T03:02:21.101Z,96.10
2023-02-12T03:05:05.765Z,95.50
2023-02-12T03:07:37.725Z,95.10
2023-02-12T03:10:11.598Z,95.30
2023-02-12T03:12:49.764Z,95.80
2023-02-12T03:15:23.792Z,95.20
2023-02-12T03:17:52.138Z,95.00
2023-02-12T03:20:25.698Z,95.00
2023-02-12T03:22:59.190Z,94.90
2023-02-12T03:25:34.165Z,95.50
2023-02-12T03:28:14.487Z,96.10
2023-02-12T03:30:46.723Z,95.50
2023-02-12T03:33:30.308Z,96.10
2023-02-12T03:36:21.915Z,96.00
2023-02-12T03:38:53.793Z,95.90
2023-02-12T03:41:26.639Z,96.10
2023-02-12T03:43:59.685Z,95.20
2023-02-12T03:46:41.875Z,95.10
2023-02-12T03:49:17.228Z,95.10
2023-02-12T03:51:49.556Z,95.20
2023-02-12T03:54:20.966Z,95.40
2023-02-12T03:56:56.282Z,95.30
2023-02-12T03:59:26.313Z,95.80
2023-02-12T04:02:00.370Z,96.30
2023-02-12T04:04:31.895Z,96.50
2023-02-12T04:07:01.603Z,96.60
2023-02-12T04:09:37.493Z,96.50
2023-02-12T04:12:43.281Z,96.40
2023-02-12T04:15:44.558Z,96.20
2023-02-12T04:18:21.109Z,96.10
2023-02-12T04:20:58.624Z,96.00
2023-02-12T04:23:41.709Z,95.90
2023-02-12T04:26:18.403Z,96.00
2023-02-12T04:28:55.449Z,96.00
2023-02-12T04:31:35.892Z,95.10
2023-02-12T04:34:11.120Z,95.10
2023-02-12T04:36:50.937Z,95.00
2023-02-12T04:39:24.170Z,95.70
2023-02-12T04:41:55.223Z,96.00
2023-02-12T04:44:25.983Z,96.30
2023-02-12T04:46:53.896Z,96.10
2023-02-12T04:49:27.544Z,95.50
2023-02-12T04:52:03.753Z,96.10
2023-02-12T04:54:32.980Z,96.40
2023-02-12T04:57:05.722Z,95.30
2023-02-12T04:59:33.635Z,95.30
2023-02-12T05:02:01.507Z,95.50
2023-02-12T05:04:38.453Z,95.90
2023-02-12T05:07:12.694Z,95.50
2023-02-12T05:09:48.000Z,96.10
2023-02-12T05:12:15.892Z,96.60
2023-02-12T05:14:43.733Z,96.40
2023-02-12T05:17:14.524Z,96.30
2023-02-12T05:19:42.393Z,96.10
2023-02-12T05:22:12.218Z,96.00
2023-02-12T05:24:42.926Z,95.80
2023-02-12T05:27:12.192Z,95.60
2023-02-12T05:29:49.049Z,95.90
2023-02-12T05:32:19.785Z,95.80
2023-02-12T05:34:53.015Z,95.80
2023-02-12T05:37:20.885Z,95.90
2023-02-12T05:39:50.779Z,95.80
2023-02-12T05:42:22.782Z,95.70
2023-02-12T05:44:56.781Z,95.40
2023-02-12T05:47:27.529Z,95.60
2023-02-12T05:49:55.376Z,95.70
2023-02-12T05:52:32.369Z,95.60
2023-02-12T05:55:00.236Z,95.50
2023-02-12T05:57:29.450Z,95.60
2023-02-12T05:59:57.335Z,95.50
2023-02-12T06:02:25.289Z,95.50
2023-02-12T06:04:59.354Z,94.30
2023-02-12T06:07:27.208Z,94.50
2023-02-12T06:10:03.767Z,95.10
2023-02-12T06:12:38.792Z,95.30
2023-02-12T06:15:09.829Z,95.70
2023-02-12T06:17:37.840Z,94.10
2023-02-12T06:20:15.631Z,94.20
2023-02-12T06:22:45.654Z,94.40
2023-02-12T06:25:15.966Z,94.90
2023-02-12T06:27:54.460Z,96.10
2023-02-12T06:30:25.280Z,96.40
2023-02-12T06:32:53.281Z,94.80
2023-02-12T06:35:21.198Z,95.00
2023-02-12T06:37:49.072Z,94.70
2023-02-12T06:40:20.230Z,95.20
2023-02-12T06:42:55.648Z,95.90
2023-02-12T06:45:23.545Z,95.00
2023-02-12T06:47:51.388Z,95.50
2023-02-12T06:50:19.465Z,95.60
2023-02-12T06:52:47.325Z,95.70
2023-02-12T06:55:15.217Z,96.40
2023-02-12T06:57:43.307Z,97.30
2023-02-12T07:00:15.928Z,97.20
2023-02-12T07:02:44.345Z,96.20
2023-02-12T07:05:12.780Z,96.40
2023-02-12T07:07:40.619Z,95.90
2023-02-12T07:10:14.394Z,94.60
2023-02-12T07:12:44.449Z,95.40
2023-02-12T07:15:12.666Z,95.70
2023-02-12T07:17:44.948Z,95.50
2023-02-12T07:20:14.470Z,94.90
2023-02-12T07:22:44.754Z,95.20
2023-02-12T07:25:18.807Z,96.10
2023-02-12T07:27:54.207Z,96.30
2023-02-12T07:30:22.199Z,95.10
2023-02-12T07:32:57.409Z,95.00
2023-02-12T07:35:28.067Z,95.20
2023-02-12T07:38:05.509Z,96.00
2023-02-12T07:40:42.540Z,95.20
2023-02-12T07:43:13.172Z,96.00
2023-02-12T07:45:44.101Z,96.10
2023-02-12T07:48:27.198Z,95.70
2023-02-12T07:51:03.671Z,96.70
2023-02-12T07:53:38.015Z,97.70
2023-02-12T07:56:11.168Z,97.50
2023-02-12T07:58:39.993Z,96.50
2023-02-12T08:01:23.872Z,95.50
2023-02-12T08:03:58.543Z,96.20
2023-02-12T08:06:28.769Z,97.20
2023-02-12T08:08:59.658Z,98.20
2023-02-12T08:11:28.833Z,98.70
2023-02-12T08:14:00.556Z,99.70
2023-02-12T08:16:31.577Z,99.20
2023-02-12T08:19:15.867Z,98.30
2023-02-12T08:21:51.617Z,97.50
2023-02-12T08:24:19.699Z,96.90
2023-02-12T08:26:51.195Z,96.40
2023-02-12T08:29:20.894Z,96.00
2023-02-12T08:31:50.912Z,95.70
2023-02-12T08:34:31.507Z,95.40
2023-02-12T08:37:02.984Z,95.00
2023-02-12T08:39:33.797Z,94.70
2023-02-12T08:42:01.960Z,94.60
2023-02-12T08:44:30.416Z,94.50
2023-02-12T08:47:07.228Z,94.50
2023-02-12T08:49:36.463Z,93.70
2023-02-12T08:52:07.512Z,94.00
2023-02-12T08:54:38.443Z,94.00
2023-02-12T08:57:09.993Z,93.60
2023-02-12T08:59:38.195Z,94.30
2023-02-12T09:02:21.192Z,95.00
2023-02-12T09:04:53.580Z,95.20
2023-02-12T09:07:21.448Z,95.10
2023-02-12T09:09:49.305Z,95.60
2023-02-12T09:12:17.203Z,95.80
2023-02-12T09:14:45.220Z,95.90
2023-02-12T09:17:13.092Z,95.90
2023-02-12T09:19:41.116Z,95.80
2023-02-12T09:22:13.379Z,94.50
2023-02-12T09:24:53.195Z,95.70
2023-02-12T09:27:21.170Z,95.40
2023-02-12T09:29:49.054Z,94.50
2023-02-12T09:32:16.954Z,94.30
2023-02-12T09:34:44.926Z,94.70
2023-02-12T09:37:14.125Z,95.10
2023-02-12T09:39:42.041Z,95.10
2023-02-12T09:42:31.490Z,95.50
2023-02-12T09:45:19.222Z,95.90
2023-02-12T09:48:04.164Z,96.90
2023-02-12T09:50:41.287Z,95.80
2023-02-12T09:53:25.862Z,95.80
2023-02-12T09:55:57.493Z,95.40
2023-02-12T09:58:36.575Z,95.30
2023-02-12T10:01:15.117Z,95.60
2023-02-12T10:03:44.201Z,95.90
2023-02-12T10:06:16.112Z,95.50
2023-02-12T10:12:12.489Z,95.70
2023-02-12T10:15:04.936Z,96.40
2023-02-12T10:18:04.017Z,96.00
2023-02-12T10:20:53.482Z,95.40
2023-02-12T10:24:03.637Z,96.20
2023-02-12T10:26:43.283Z,97.80
2023-02-12T10:29:18.672Z,97.10
2023-02-12T10:31:49.581Z,95.90
2023-02-12T10:34:22.950Z,98.00
2023-02-12T10:36:55.861Z,98.10
2023-02-12T10:39:26.848Z,98.50
2023-02-12T10:42:03.740Z,95.70
2023-02-12T10:44:40.297Z,95.70
2023-02-12T10:47:12.915Z,95.00
2023-02-12T10:49:40.834Z,97.00
2023-02-12T10:52:19.041Z,98.20
2023-02-12T10:54:50.646Z,96.00
2023-02-12T10:57:24.600Z,95.70
2023-02-12T10:59:57.119Z,96.70
2023-02-12T11:02:29.746Z,97.50
2023-02-12T11:05:25.086Z,94.80
2023-02-12T11:08:00.608Z,93.90
2023-02-12T11:10:33.589Z,94.60
2023-02-12T11:13:03.979Z,96.10
2023-02-12T11:15:49.490Z,95.90
2023-02-12T11:18:25.843Z,94.70
2023-02-12T11:20:59.560Z,93.90
2023-02-12T11:23:29.682Z,94.20
2023-02-12T11:26:06.202Z,94.30
2023-02-12T11:28:38.395Z,94.60
2023-02-12T11:31:26.306Z,94.80
2023-02-12T11:34:16.293Z,94.70
2023-02-12T11:36:49.596Z,94.70
2023-02-12T11:39:25.590Z,95.60
2023-02-12T11:41:57.924Z,95.40
2023-02-12T11:44:30.901Z,95.60
2023-02-12T11:47:03.813Z,95.40
2023-02-12T11:49:33.660Z,95.50
2023-02-12T11:52:03.580Z,95.80
2023-02-12T11:54:39.778Z,96.00
2023-02-12T11:57:46.761Z,96.40
2023-02-12T12:00:18.275Z,95.60
2023-02-12T12:02:55.071Z,95.60
2023-02-12T12:05:23.797Z,95.70
2023-02-12T12:07:57.188Z,95.80
2023-02-12T12:13:26.100Z,95.90
2023-02-12T12:16:42.250Z,96.50
2023-02-12T12:19:55.858Z,96.20
2023-02-12T12:22:43.683Z,95.90
2023-02-12T12:25:28.420Z,96.40
2023-02-12T12:28:15.207Z,94.90
2023-02-12T12:31:07.784Z,94.80
2023-02-12T12:33:41.704Z,94.90
2023-02-12T12:36:42.629Z,95.10
2023-02-12T12:39:22.005Z,95.30
2023-02-12T12:42:08.056Z,95.70
2023-02-12T12:44:51.670Z,95.10
2023-02-12T12:47:37.577Z,95.40
2023-02-12T12:50:40.434Z,95.30
2023-02-12T12:53:29.091Z,95.50
2023-02-12T12:56:26.529Z,95.50
2023-02-12T12:59:27.872Z,95.50
2023-02-12T13:02:49.530Z,96.50
2023-02-12T13:05:55.371Z,95.60
2023-02-12T13:08:49.669Z,95.60
2023-02-12T13:11:33.768Z,95.30
2023-02-12T13:14:31.940Z,95.50
2023-02-12T13:17:11.115Z,95.50
2023-02-12T13:19:50.386Z,95.60
2023-02-12T13:22:29.025Z,96.10
2023-02-12T13:25:02.767Z,95.70
2023-02-12T13:27:34.545Z,96.00
2023-02-12T13:30:18.260Z,95.70
2023-02-12T13:32:50.866Z,96.00
2023-02-12T13:35:30.269Z,96.40
2023-02-12T13:38:22.126Z,96.60
2023-02-12T13:41:02.903Z,96.90
2023-02-12T13:43:47.404Z,96.70
2023-02-12T13:46:25.152Z,96.60
2023-02-12T13:49:16.280Z,96.30
2023-02-12T13:51:47.368Z,95.80
2023-02-12T13:54:37.432Z,96.50
2023-02-12T13:57:13.343Z,96.40
2023-02-12T13:59:43.812Z,96.70
2023-02-12T14:02:44.596Z,96.20
2023-02-12T14:05:24.078Z,96.10
2023-02-12T14:07:55.237Z,96.30
2023-02-12T14:10:31.034Z,96.60
2023-02-12T14:13:11.359Z,96.70
2023-02-12T14:15:41.553Z,97.10
2023-02-12T14:18:29.760Z,97.10
2023-02-12T14:21:46.076Z,97.60
2023-02-12T14:24:47.582Z,98.00
2023-02-12T14:27:37.579Z,96.80
2023-02-12T14:30:31.313Z,96.50
2023-02-12T14:33:27.628Z,96.50
2023-02-12T14:36:40.664Z,96.50
2023-02-12T14:39:28.766Z,96.40
2023-02-12T14:42:45.870Z,96.50
2023-02-12T14:45:35.376Z,96.50
2023-02-12T14:48:41.518Z,96.70
2023-02-12T14:51:17.954Z,97.30
2023-02-12T14:53:56.980Z,96.60
2023-02-12T14:56:25.518Z,96.50
2023-02-12T14:58:56.937Z,96.60
2023-02-12T15:01:35.781Z,96.60
2023-02-12T15:04:36.532Z,96.70
2023-02-12T15:07:17.051Z,96.80
2023-02-12T15:09:51.480Z,96.90
2023-02-12T15:12:27.408Z,97.00
2023-02-12T15:15:13.902Z,96.80
2023-02-12T15:17:58.969Z,96.90
2023-02-12T15:20:42.689Z,96.70
2023-02-12T15:23:39.954Z,96.60
2023-02-12T15:26:13.226Z,98.40
2023-02-12T15:28:41.902Z,99.90
2023-02-12T15:31:11.431Z,99.40
2023-02-12T15:33:45.693Z,96.90
2023-02-12T15:36:19.067Z,95.50
2023-02-12T15:38:50.516Z,96.20
2023-02-12T15:41:37.560Z,95.30
2023-02-12T15:44:26.306Z,94.50
2023-02-12T15:46:55.993Z,95.30
2023-02-12T15:49:40.024Z,95.00
2023-02-12T15:52:20.649Z,94.90
2023-02-12T15:54:49.471Z,95.20
2023-02-12T15:57:23.100Z,95.10
2023-02-12T15:59:52.676Z,95.50
2023-02-12T16:02:25.276Z,95.40
2023-02-12T16:04:57.833Z,95.70
2023-02-12T16:07:41.886Z,95.80
2023-02-12T16:10:15.282Z,96.00
2023-02-12T16:12:43.524Z,96.10
2023-02-12T16:15:30.766Z,96.60
2023-02-12T16:18:06.729Z,96.60
2023-02-12T16:20:46.720Z,95.90
2023-02-12T16:23:23.653Z,95.70
2023-02-12T16:25:57.523Z,96.00
2023-02-12T16:28:29.054Z,96.00
2023-02-12T16:31:14.626Z,96.10
2023-02-12T16:33:53.210Z,96.20
2023-02-12T16:36:32.260Z,96.30
2023-02-12T16:39:02.268Z,96.40
2023-02-12T16:41:31.818Z,96.10
2023-02-12T16:44:22.132Z,96.10
2023-02-12T16:46:52.144Z,96.30
2023-02-12T16:49:22.620Z,96.30
2023-02-12T16:52:22.943Z,96.30
2023-02-12T16:54:50.878Z,96.50
2023-02-12T16:57:21.746Z,96.50
2023-02-12T16:59:55.711Z,97.00
2023-02-12T17:02:23.570Z,97.00
2023-02-12T17:04:56.733Z,96.50
2023-02-12T17:07:28.986Z,96.70
2023-02-12T17:10:04.222Z,96.40
2023-02-12T17:12:32.132Z,96.30
2023-02-12T17:15:08.859Z,96.20
2023-02-12T17:17:39.485Z,96.20
2023-02-12T17:20:10.192Z,96.30
2023-02-12T17:22:39.520Z,96.30
2023-02-12T17:25:07.586Z,96.10
2023-02-12T17:27:38.251Z,95.90
2023-02-12T17:30:07.272Z,96.10
2023-02-12T17:32:40.421Z,97.50
2023-02-12T17:35:12.920Z,98.60
2023-02-12T17:37:50.366Z,97.70
2023-02-12T17:40:24.505Z,96.10
2023-02-12T17:42:58.794Z,95.50
2023-02-12T17:45:26.686Z,95.30
2023-02-12T17:47:55.235Z,95.80
2023-02-12T17:50:23.308Z,95.80
2023-02-12T17:52:54.988Z,95.70
2023-02-12T17:55:22.877Z,95.50
2023-02-12T17:57:54.060Z,95.80
2023-02-12T18:00:25.800Z,95.90
2023-02-12T18:02:54.772Z,95.90
2023-02-12T18:05:28.697Z,96.00
2023-02-12T18:08:02.283Z,96.30
2023-02-12T18:10:47.707Z,96.20
2023-02-12T18:13:24.725Z,96.30
2023-02-12T18:16:02.776Z,96.70
2023-02-12T18:18:33.371Z,96.30
2023-02-12T18:21:07.897Z,96.20
2023-02-12T18:23:56.133Z,97.00
2023-02-12T18:26:24.452Z,96.40
2023-02-12T18:29:01.710Z,96.70
2023-02-12T18:31:33.592Z,96.20
2023-02-12T18:34:03.905Z,96.00
2023-02-12T18:36:40.726Z,96.00
2023-02-12T18:39:24.333Z,96.10
2023-02-12T18:41:57.954Z,96.30
2023-02-12T18:44:32.173Z,96.20
2023-02-12T18:47:03.001Z,96.90
2023-02-12T18:49:36.693Z,96.60
2023-02-12T18:52:04.696Z,96.40
2023-02-12T18:54:40.079Z,96.40
2023-02-12T18:57:13.557Z,96.20
2023-02-12T18:59:44.366Z,96.30
2023-02-12T19:02:13.844Z,96.30
2023-02-12T19:04:56.815Z,96.50
2023-02-12T19:07:30.617Z,96.50
2023-02-12T19:10:02.730Z,96.50
2023-02-12T19:12:36.578Z,96.90
2023-02-12T19:15:04.699Z,97.10
2023-02-12T19:17:34.045Z,97.20
2023-02-12T19:20:03.133Z,96.10
2023-02-12T19:22:40.010Z,96.80
2023-02-12T19:25:12.143Z,96.10
2023-02-12T19:27:39.959Z,96.10
2023-02-12T19:30:11.685Z,96.90
2023-02-12T19:32:42.732Z,96.80
2023-02-12T19:35:10.649Z,96.00
2023-02-12T19:37:38.613Z,95.90
2023-02-12T19:40:12.033Z,96.00
2023-02-12T19:42:47.393Z,96.20
2023-02-12T19:45:21.230Z,96.50
2023-02-12T19:48:10.576Z,96.90
2023-02-12T19:50:47.743Z,97.50
2023-02-12T19:53:15.733Z,97.30
2023-02-12T19:55:47.970Z,97.80
2023-02-12T19:58:18.282Z,97.20
2023-02-12T20:00:46.205Z,97.50
2023-02-12T20:03:14.463Z,97.30
2023-02-12T20:05:46.309Z,97.30
2023-02-12T20:08:17.254Z,97.40
2023-02-12T20:10:45.201Z,97.30
2023-02-12T20:13:14.457Z,97.80
2023-02-12T20:15:51.324Z,98.10
2023-02-12T20:18:25.878Z,98.20
2023-02-12T20:20:53.934Z,97.60
2023-02-12T20:23:24.251Z,97.70
2023-02-12T20:25:55.075Z,97.60
2023-02-12T20:28:24.247Z,97.40
2023-02-12T20:30:59.817Z,97.50
2023-02-12T20:33:30.957Z,97.70
2023-02-12T20:36:08.281Z,97.30
2023-02-12T20:38:39.200Z,97.90
2023-02-12T20:41:18.132Z,97.30
2023-02-12T20:43:53.082Z,97.70
2023-02-12T20:46:39.316Z,97.30
2023-02-12T20:49:10.251Z,97.50
2023-02-12T20:51:38.131Z,97.60
2023-02-12T20:54:09.316Z,97.80
2023-02-12T20:56:40.339Z,98.30
2023-02-12T20:59:15.171Z,99.70
2023-02-12T21:01:45.931Z,99.00
2023-02-12T21:04:16.560Z,98.10
2023-02-12T21:06:48.249Z,96.80
2023-02-12T21:09:19.781Z,96.70
2023-02-12T21:11:53.101Z,96.80
2023-02-12T21:14:25.047Z,97.10
2023-02-12T21:16:54.389Z,97.40
2023-02-12T21:19:26.453Z,97.70
2023-02-12T21:21:54.852Z,97.80
2023-02-12T21:24:24.664Z,98.40
2023-02-12T21:26:53.566Z,98.50
2023-02-12T21:29:27.340Z,97.40
2023-02-12T21:31:58.182Z,98.00
2023-02-12T21:34:29.354Z,97.60
2023-02-12T21:37:09.233Z,97.20
2023-02-12T21:39:37.154Z,97.20
2023-02-12T21:42:08.116Z,97.20
2023-02-12T21:44:40.492Z,97.60
2023-02-12T21:47:08.700Z,97.40
2023-02-12T21:49:39.384Z,97.50
2023-02-12T21:52:11.457Z,97.70
2023-02-12T21:54:42.085Z,97.80
2023-02-12T21:57:20.310Z,98.20
2023-02-12T21:59:55.300Z,97.80
2023-02-12T22:02:23.221Z,97.90
2023-02-12T22:04:51.173Z,97.90
2023-02-12T22:07:21.876Z,98.00
2023-02-12T22:09:49.758Z,98.10
2023-02-12T22:12:20.648Z,98.30
2023-02-12T22:15:03.663Z,98.50
2023-02-12T22:17:33.202Z,99.30
2023-02-12T22:20:02.012Z,98.80
2023-02-12T22:22:29.847Z,97.80
2023-02-12T22:25:00.001Z,97.70
2023-02-12T22:27:32.394Z,97.60
2023-02-12T22:30:04.411Z,98.00
2023-02-12T22:32:35.466Z,98.10
2023-02-12T22:35:03.441Z,98.40
2023-02-12T22:37:41.908Z,98.90
2023-02-12T22:40:11.162Z,98.80
2023-02-12T22:42:42.689Z,97.90
2023-02-12T22:45:11.923Z,97.70
2023-02-12T22:47:55.176Z,97.80
2023-02-12T22:50:23.044Z,97.90
2023-02-12T22:52:56.620Z,98.00
2023-02-12T22:55:24.477Z,98.60
2023-02-12T22:58:01.202Z,99.30
2023-02-12T23:00:30.734Z,97.90
2023-02-12T23:02:58.659Z,97.90
2023-02-12T23:05:26.602Z,97.90
2023-02-12T23:08:03.711Z,98.00
2023-02-12T23:10:31.633Z,97.90
2023-02-12T23:13:01.811Z,98.50
2023-02-12T23:15:32.002Z,98.70
2023-02-12T23:18:02.913Z,97.60
2023-02-12T23:20:30.763Z,97.70
2023-02-12T23:23:04.676Z,97.70
2023-02-12T23:25:32.557Z,97.70
2023-02-12T23:28:00.445Z,98.30
2023-02-12T23:30:32.637Z,98.50
2023-02-12T23:33:06.407Z,98.10
2023-02-12T23:35:36.557Z,98.10
2023-02-12T23:38:10.543Z,98.40
2023-02-12T23:40:38.952Z,98.20
2023-02-12T23:43:09.176Z,98.20
2023-02-12T23:45:46.767Z,98.30
2023-02-12T23:48:17.689Z,98.40
2023-02-12T23:50:51.311Z,98.10
2023-02-12T23:53:29.092Z,98.00
2023-02-12T23:55:56.951Z,97.90
2023-02-12T23:58:29.539Z,98.10
